createdAt,value
2023-03-08T00:01:16.719Z,6.80
2023-03-08T00:03:44.021Z,7.00
2023-03-08T00:06:16.522Z,7.00
2023-03-08T00:08:43.607Z,7.70
2023-03-08T00:11:12.728Z,6.83
2023-03-08T00:13:40.838Z,7.30
2023-03-08T00:16:11.620Z,6.90
2023-03-08T00:18:38.643Z,7.20
2023-03-08T00:21:13.383Z,6.67
2023-03-08T00:23:41.484Z,7.00
2023-03-08T00:26:09.694Z,6.80
2023-03-08T00:28:36.614Z,7.00
2023-03-08T00:31:07.525Z,7.13
2023-03-08T00:33:35.291Z,8.53
2023-03-08T00:36:05.240Z,7.73
2023-03-08T00:38:35.330Z,8.23
2023-03-08T00:41:03.547Z,7.83
2023-03-08T00:43:32.888Z,8.00
2023-03-08T00:46:04.055Z,7.43
2023-03-08T00:48:31.591Z,8.13
2023-03-08T00:50:58.587Z,7.67
2023-03-08T00:53:25.899Z,7.90
2023-03-08T00:55:56.134Z,8.40
2023-03-08T00:58:26.346Z,7.70
2023-03-08T01:00:53.876Z,7.77
2023-03-08T01:03:23.466Z,8.20
2023-03-08T01:05:56.292Z,9.97
2023-03-08T01:08:25.769Z,8.87
2023-03-08T01:10:59.781Z,9.73
2023-03-08T01:13:31.192Z,9.70
2023-03-08T01:15:58.749Z,9.80
2023-03-08T01:18:26.196Z,10.13
2023-03-08T01:21:02.406Z,9.93
2023-03-08T01:23:31.159Z,9.07
2023-03-08T01:26:04.958Z,10.30
2023-03-08T01:28:33.271Z,9.23
2023-03-08T01:31:15.367Z,10.60
2023-03-08T01:33:43.490Z,10.30
2023-03-08T01:36:17.728Z,8.83
2023-03-08T01:38:47.201Z,10.03
2023-03-08T01:41:22.022Z,9.30
2023-03-08T01:43:50.703Z,9.83
2023-03-08T01:46:34.070Z,8.93
2023-03-08T01:49:27.052Z,9.30
2023-03-08T01:52:04.589Z,9.93
2023-03-08T01:54:46.885Z,10.17
2023-03-08T01:57:24.793Z,9.03
2023-03-08T01:59:55.794Z,8.83
2023-03-08T02:02:35.368Z,8.60
2023-03-08T02:05:02.220Z,8.53
2023-03-08T02:07:30.730Z,8.80
2023-03-08T02:09:58.257Z,9.10
2023-03-08T02:12:26.547Z,8.90
2023-03-08T02:14:53.630Z,8.47
2023-03-08T02:17:23.034Z,10.00
2023-03-08T02:20:24.578Z,9.57
2023-03-08T02:22:53.132Z,10.10
2023-03-08T02:25:24.888Z,10.17
2023-03-08T02:27:55.086Z,9.70
2023-03-08T02:30:32.249Z,10.53
2023-03-08T02:32:59.104Z,10.10
2023-03-08T02:35:29.268Z,9.93
2023-03-08T02:37:56.365Z,9.03
2023-03-08T02:40:24.792Z,8.90
2023-03-08T02:42:53.379Z,9.07
2023-03-08T02:45:20.356Z,9.60
2023-03-08T02:47:47.235Z,8.33
2023-03-08T02:50:14.353Z,9.47
2023-03-08T02:52:41.142Z,9.00
2023-03-08T02:55:08.450Z,7.60
2023-03-08T02:57:35.258Z,8.23
2023-03-08T03:00:06.054Z,7.37
2023-03-08T03:02:34.196Z,8.83
2023-03-08T03:05:04.710Z,6.80
2023-03-08T03:07:35.874Z,8.50
2023-03-08T03:10:04.642Z,8.07
2023-03-08T03:12:31.763Z,8.63
2023-03-08T03:14:58.559Z,8.20
2023-03-08T03:17:25.465Z,7.00
2023-03-08T03:19:52.232Z,7.70
2023-03-08T03:22:19.013Z,9.10
2023-03-08T03:24:45.949Z,8.37
2023-03-08T03:27:13.054Z,8.40
2023-03-08T03:29:40.405Z,8.70
2023-03-08T03:32:12.982Z,8.93
2023-03-08T03:34:40.168Z,9.00
2023-03-08T03:37:07.230Z,8.93
2023-03-08T03:39:39.121Z,9.30
2023-03-08T03:42:08.713Z,9.40
2023-03-08T03:44:38.617Z,9.93
2023-03-08T03:47:08.474Z,8.33
2023-03-08T03:49:35.346Z,9.40
2023-03-08T03:52:03.747Z,9.30
2023-03-08T03:54:40.154Z,8.97
2023-03-08T03:57:07.603Z,7.93
2023-03-08T03:59:38.145Z,9.47
2023-03-08T04:02:05.028Z,9.20
2023-03-08T04:04:50.714Z,9.17
2023-03-08T04:07:20.854Z,9.53
2023-03-08T04:09:55.490Z,8.57
2023-03-08T04:12:22.313Z,8.70
2023-03-08T04:14:49.902Z,8.50
2023-03-08T04:17:17.782Z,6.80
2023-03-08T04:19:50.359Z,8.60
2023-03-08T04:22:18.169Z,8.50
2023-03-08T04:24:49.968Z,7.57
2023-03-08T04:27:22.065Z,7.00
2023-03-08T04:29:48.906Z,8.50
2023-03-08T04:32:16.497Z,8.27
2023-03-08T04:34:48.347Z,9.07
2023-03-08T04:37:19.060Z,9.90
2023-03-08T04:39:50.036Z,8.70
2023-03-08T04:42:17.691Z,7.70
2023-03-08T04:44:45.644Z,8.83
2023-03-08T04:47:14.923Z,8.13
2023-03-08T04:49:45.844Z,8.67
2023-03-08T04:52:13.223Z,7.73
2023-03-08T04:54:41.264Z,8.37
2023-03-08T04:57:19.864Z,8.23
2023-03-08T04:59:48.406Z,7.23
2023-03-08T05:02:15.272Z,7.53
2023-03-08T05:04:43.341Z,7.23
2023-03-08T05:07:10.817Z,8.40
2023-03-08T05:09:38.226Z,7.83
2023-03-08T05:12:05.329Z,8.40
2023-03-08T05:14:49.458Z,8.47
2023-03-08T05:17:16.536Z,8.03
2023-03-08T05:19:43.341Z,8.67
2023-03-08T05:22:12.305Z,10.33
2023-03-08T05:24:46.189Z,15.07
2023-03-08T05:27:14.123Z,13.87
2023-03-08T05:29:41.080Z,11.40
2023-03-08T05:32:12.151Z,11.87
2023-03-08T05:34:40.007Z,9.67
2023-03-08T05:37:10.049Z,9.37
2023-03-08T05:39:38.455Z,9.77
2023-03-08T05:42:27.343Z,9.63
2023-03-08T05:44:55.048Z,9.77
2023-03-08T05:47:29.225Z,9.40
2023-03-08T05:49:56.360Z,9.83
2023-03-08T05:52:23.734Z,8.57
2023-03-08T05:54:50.567Z,9.17
2023-03-08T05:57:19.705Z,9.97
2023-03-08T05:59:47.803Z,8.23
2023-03-08T06:02:17.852Z,8.47
2023-03-08T06:04:50.449Z,7.90
2023-03-08T06:07:20.405Z,7.40
2023-03-08T06:09:58.315Z,7.90
2023-03-08T06:12:25.163Z,7.70
2023-03-08T06:14:55.436Z,8.07
2023-03-08T06:17:25.362Z,8.57
2023-03-08T06:19:54.392Z,7.77
2023-03-08T06:22:22.328Z,7.17
2023-03-08T06:24:49.864Z,8.43
2023-03-08T06:27:22.394Z,8.60
2023-03-08T06:29:51.402Z,9.20
2023-03-08T06:32:19.443Z,8.93
2023-03-08T06:34:47.657Z,7.67
2023-03-08T06:37:15.025Z,8.93
2023-03-08T06:39:42.205Z,7.63
2023-03-08T06:42:09.163Z,7.37
2023-03-08T06:44:36.628Z,7.40
2023-03-08T06:47:04.160Z,7.10
2023-03-08T06:49:30.985Z,7.60
2023-03-08T06:51:58.652Z,8.17
2023-03-08T06:54:26.313Z,10.47
2023-03-08T06:56:53.060Z,7.33
2023-03-08T06:59:19.938Z,11.20
2023-03-08T07:01:46.820Z,10.67
2023-03-08T07:04:14.021Z,9.80
2023-03-08T07:06:40.826Z,8.70
2023-03-08T07:09:07.834Z,8.00
2023-03-08T07:11:34.890Z,8.23
2023-03-08T07:14:01.949Z,7.13
2023-03-08T07:16:28.791Z,7.13
2023-03-08T07:18:56.880Z,5.97
2023-03-08T07:21:24.569Z,6.80
2023-03-08T07:23:53.164Z,6.30
2023-03-08T07:26:19.967Z,6.50
2023-03-08T07:28:51.352Z,5.83
2023-03-08T07:31:18.464Z,7.60
2023-03-08T07:33:45.710Z,6.67
2023-03-08T07:36:13.257Z,6.67
2023-03-08T07:38:40.096Z,12.90
2023-03-08T07:41:07.056Z,9.00
2023-03-08T07:43:33.944Z,12.23
2023-03-08T07:46:09.024Z,10.47
2023-03-08T07:48:35.853Z,7.87
2023-03-08T07:51:07.214Z,8.20
2023-03-08T07:53:35.011Z,8.73
2023-03-08T07:56:02.204Z,9.47
2023-03-08T07:58:30.008Z,6.77
2023-03-08T08:00:56.994Z,6.23
2023-03-08T08:03:24.202Z,5.80
2023-03-08T08:05:51.047Z,5.60
2023-03-08T08:08:17.921Z,6.67
2023-03-08T08:10:45.001Z,7.33
2023-03-08T08:13:11.847Z,7.17
2023-03-08T08:15:38.634Z,10.30
2023-03-08T08:18:05.642Z,9.27
2023-03-08T08:20:32.491Z,7.37
2023-03-08T08:22:59.287Z,7.53
2023-03-08T08:25:26.109Z,6.50
2023-03-08T08:27:53.003Z,6.70
2023-03-08T08:30:20.556Z,5.93
2023-03-08T08:32:47.582Z,6.60
2023-03-08T08:35:14.825Z,7.67
2023-03-08T08:37:41.807Z,6.80
2023-03-08T08:40:10.712Z,10.27
2023-03-08T08:42:38.054Z,8.70
2023-03-08T08:45:05.865Z,6.90
2023-03-08T08:47:32.963Z,5.90
2023-03-08T08:49:59.931Z,7.47
2023-03-08T08:52:26.779Z,6.70
2023-03-08T08:54:53.784Z,6.63
2023-03-08T08:57:20.532Z,5.80
2023-03-08T08:59:47.643Z,6.17
2023-03-08T09:02:15.049Z,12.30
2023-03-08T09:04:41.967Z,11.90
2023-03-08T09:07:08.920Z,10.57
2023-03-08T09:09:35.822Z,11.13
2023-03-08T09:12:02.872Z,10.97
2023-03-08T09:14:29.754Z,10.23
2023-03-08T09:16:56.744Z,7.57
2023-03-08T09:19:23.622Z,7.50
2023-03-08T09:21:50.720Z,9.10
2023-03-08T09:24:17.734Z,5.67
2023-03-08T09:26:44.560Z,9.20
2023-03-08T09:29:11.873Z,6.80
2023-03-08T09:31:39.903Z,5.70
2023-03-08T09:34:09.008Z,5.37
2023-03-08T09:36:39.385Z,6.27
2023-03-08T09:39:11.526Z,6.53
2023-03-08T09:41:44.068Z,6.03
2023-03-08T09:44:35.222Z,35.43
2023-03-08T09:47:14.450Z,9.20
2023-03-08T09:49:46.517Z,6.97
2023-03-08T09:52:40.060Z,6.10
2023-03-08T09:55:30.622Z,6.20
2023-03-08T09:58:41.071Z,5.67
2023-03-08T10:01:36.238Z,5.20
2023-03-08T10:04:20.439Z,5.10
2023-03-08T10:07:22.798Z,5.07
2023-03-08T10:10:38.192Z,5.37
2023-03-08T10:13:30.246Z,4.77
2023-03-08T10:16:28.883Z,5.00
2023-03-08T10:19:32.980Z,4.57
2023-03-08T10:22:39.050Z,4.93
2023-03-08T10:25:28.615Z,5.13
2023-03-08T10:27:58.976Z,4.57
2023-03-08T10:30:40.965Z,4.93
2023-03-08T10:33:14.788Z,4.97
2023-03-08T10:36:16.975Z,4.00
2023-03-08T10:39:02.464Z,6.23
2023-03-08T10:41:36.553Z,5.00
2023-03-08T10:44:04.176Z,4.57
2023-03-08T10:46:32.811Z,4.40
2023-03-08T10:49:17.956Z,5.10
2023-03-08T10:52:01.101Z,5.07
2023-03-08T10:54:28.730Z,4.97
2023-03-08T10:57:02.098Z,5.27
2023-03-08T10:59:35.324Z,5.10
2023-03-08T11:02:14.295Z,5.47
2023-03-08T11:04:59.026Z,5.43
2023-03-08T11:07:33.251Z,5.00
2023-03-08T11:10:12.259Z,5.70
2023-03-08T11:12:39.530Z,5.47
2023-03-08T11:15:20.725Z,5.27
2023-03-08T11:18:19.438Z,5.10
2023-03-08T11:21:00.917Z,5.43
2023-03-08T11:24:08.335Z,6.03
2023-03-08T11:26:51.138Z,5.93
2023-03-08T11:29:50.578Z,6.00
2023-03-08T11:32:36.001Z,5.20
2023-03-08T11:35:20.764Z,5.53
2023-03-08T11:38:03.456Z,5.03
2023-03-08T11:40:52.399Z,5.57
2023-03-08T11:44:03.876Z,6.03
2023-03-08T11:46:48.593Z,5.63
2023-03-08T11:49:36.414Z,5.17
2023-03-08T11:52:36.897Z,6.03
2023-03-08T11:55:25.741Z,5.00
2023-03-08T11:58:11.489Z,6.03
2023-03-08T12:00:43.618Z,5.10
2023-03-08T12:03:23.542Z,6.20
2023-03-08T12:05:56.934Z,5.40
2023-03-08T12:08:38.872Z,5.93
2023-03-08T12:11:17.059Z,5.23
2023-03-08T12:14:01.973Z,5.03
2023-03-08T12:17:24.832Z,4.80
2023-03-08T12:19:52.078Z,5.40
2023-03-08T12:23:00.905Z,5.00
2023-03-08T12:25:34.683Z,6.63
2023-03-08T12:28:24.375Z,5.27
2023-03-08T12:31:35.761Z,4.80
2023-03-08T12:34:37.806Z,5.47
2023-03-08T12:37:05.606Z,4.87
2023-03-08T12:39:36.535Z,6.00
2023-03-08T12:42:16.667Z,6.03
2023-03-08T12:44:43.946Z,4.63
2023-03-08T12:47:13.865Z,4.63
2023-03-08T12:49:46.305Z,4.87
2023-03-08T12:52:18.973Z,5.43
2023-03-08T12:55:20.861Z,5.57
2023-03-08T12:57:54.352Z,5.40
2023-03-08T13:00:25.393Z,4.70
2023-03-08T13:03:04.315Z,5.93
2023-03-08T13:05:37.948Z,5.80
2023-03-08T13:08:15.053Z,5.30
2023-03-08T13:10:50.789Z,4.83
2023-03-08T13:13:39.183Z,4.67
2023-03-08T13:16:39.560Z,5.20
2023-03-08T13:19:15.293Z,5.40
2023-03-08T13:22:14.463Z,5.30
2023-03-08T13:24:51.027Z,5.30
2023-03-08T13:27:51.785Z,5.67
2023-03-08T13:31:00.693Z,5.10
2023-03-08T13:33:37.678Z,5.13
2023-03-08T13:36:21.626Z,5.53
2023-03-08T13:39:23.213Z,5.77
2023-03-08T13:41:50.549Z,5.13
2023-03-08T13:44:24.520Z,5.50
2023-03-08T13:47:00.486Z,5.60
2023-03-08T13:49:37.027Z,5.03
2023-03-08T13:52:16.929Z,5.10
2023-03-08T13:54:51.489Z,5.20
2023-03-08T13:57:29.100Z,5.10
2023-03-08T14:00:01.841Z,4.90
2023-03-08T14:02:32.675Z,4.47
2023-03-08T14:04:59.769Z,5.77
2023-03-08T14:07:32.080Z,5.60
2023-03-08T14:09:59.085Z,5.50
2023-03-08T14:12:33.496Z,5.47
2023-03-08T14:15:06.319Z,5.40
2023-03-08T14:17:35.880Z,5.63
2023-03-08T14:20:18.943Z,5.40
2023-03-08T14:22:52.094Z,5.73
2023-03-08T14:25:32.315Z,5.30
2023-03-08T14:27:59.392Z,5.30
2023-03-08T14:30:31.140Z,4.80
2023-03-08T14:33:19.183Z,5.03
2023-03-08T14:35:58.488Z,5.20
2023-03-08T14:38:32.653Z,5.53
2023-03-08T14:41:06.398Z,5.00
2023-03-08T14:43:33.963Z,5.67
2023-03-08T14:46:09.437Z,5.93
2023-03-08T14:48:38.538Z,4.83
2023-03-08T14:51:27.234Z,6.23
2023-03-08T14:54:19.312Z,6.00
2023-03-08T14:56:47.091Z,6.50
2023-03-08T14:59:25.224Z,6.10
2023-03-08T15:01:54.106Z,6.03
2023-03-08T15:04:24.752Z,6.87
2023-03-08T15:06:54.494Z,6.13
2023-03-08T15:09:23.047Z,6.20
2023-03-08T15:11:54.136Z,6.30
2023-03-08T15:14:21.243Z,7.03
2023-03-08T15:16:48.132Z,7.90
2023-03-08T15:19:14.983Z,7.20
2023-03-08T15:21:42.568Z,7.63
2023-03-08T15:24:19.498Z,9.17
2023-03-08T15:26:46.627Z,10.17
2023-03-08T15:29:32.883Z,9.20
2023-03-08T15:32:00.410Z,10.53
2023-03-08T15:34:28.577Z,9.20
2023-03-08T15:36:56.106Z,9.07
2023-03-08T15:39:23.341Z,8.70
2023-03-08T15:41:50.187Z,8.47
2023-03-08T15:44:17.016Z,8.97
2023-03-08T15:46:43.801Z,8.10
2023-03-08T15:49:11.154Z,7.80
2023-03-08T15:51:38.335Z,7.70
2023-03-08T15:54:06.901Z,7.27
2023-03-08T15:56:34.204Z,7.37
2023-03-08T15:59:01.195Z,7.70
2023-03-08T16:01:28.077Z,9.13
2023-03-08T16:03:56.957Z,8.67
2023-03-08T16:06:25.198Z,10.47
2023-03-08T16:08:52.044Z,10.57
2023-03-08T16:11:22.712Z,17.03
2023-03-08T16:13:52.234Z,11.77
2023-03-08T16:16:20.292Z,10.17
2023-03-08T16:18:48.425Z,9.00
2023-03-08T16:21:15.686Z,10.33
2023-03-08T16:23:42.883Z,12.10
2023-03-08T16:26:16.772Z,11.93
2023-03-08T16:28:46.918Z,11.20
2023-03-08T16:31:15.965Z,10.90
2023-03-08T16:33:42.849Z,10.90
2023-03-08T16:36:11.375Z,9.97
2023-03-08T16:38:38.519Z,9.73
2023-03-08T16:41:12.695Z,10.43
2023-03-08T16:43:47.266Z,11.23
2023-03-08T16:46:18.182Z,11.03
2023-03-08T16:48:45.443Z,10.60
2023-03-08T16:51:15.046Z,10.30
2023-03-08T16:53:42.166Z,9.57
2023-03-08T16:56:10.890Z,9.40
2023-03-08T16:58:37.692Z,9.13
2023-03-08T17:01:12.273Z,9.03
2023-03-08T17:03:39.402Z,9.63
2023-03-08T17:06:12.767Z,10.10
2023-03-08T17:08:40.580Z,8.47
2023-03-08T17:11:16.799Z,8.53
2023-03-08T17:13:47.500Z,14.30
2023-03-08T17:16:14.555Z,15.57
2023-03-08T17:18:41.382Z,13.50
2023-03-08T17:21:09.759Z,15.07
2023-03-08T17:23:37.206Z,14.60
2023-03-08T17:26:06.688Z,13.17
2023-03-08T17:28:35.036Z,12.23
2023-03-08T17:31:07.317Z,11.77
2023-03-08T17:33:34.138Z,11.93
2023-03-08T17:36:02.092Z,10.50
2023-03-08T17:38:29.253Z,18.83
2023-03-08T17:40:56.124Z,17.13
2023-03-08T17:43:23.069Z,17.10
2023-03-08T17:46:05.758Z,15.40
2023-03-08T17:48:34.092Z,17.17
2023-03-08T17:51:10.195Z,13.80
2023-03-08T17:53:38.140Z,14.23
2023-03-08T17:56:11.657Z,14.50
2023-03-08T17:58:38.827Z,15.87
2023-03-08T18:01:12.982Z,13.87
2023-03-08T18:03:40.448Z,14.67
2023-03-08T18:06:08.956Z,12.40
2023-03-08T18:08:36.441Z,12.57
2023-03-08T18:11:03.727Z,11.73
2023-03-08T18:13:30.499Z,9.47
2023-03-08T18:15:57.529Z,11.10
2023-03-08T18:18:24.647Z,10.90
2023-03-08T18:20:52.128Z,9.80
2023-03-08T18:23:20.448Z,10.40
2023-03-08T18:25:47.478Z,9.67
2023-03-08T18:28:14.874Z,10.77
2023-03-08T18:30:42.113Z,10.23
2023-03-08T18:33:10.291Z,10.60
2023-03-08T18:35:37.374Z,10.50
2023-03-08T18:38:04.396Z,10.43
2023-03-08T18:40:31.459Z,13.03
2023-03-08T18:42:58.486Z,17.43
2023-03-08T18:45:25.307Z,16.07
2023-03-08T18:47:52.800Z,18.80
2023-03-08T18:50:20.162Z,18.47
2023-03-08T18:52:47.219Z,17.93
2023-03-08T18:55:14.358Z,14.83
2023-03-08T18:57:41.729Z,16.90
2023-03-08T19:00:11.740Z,14.67
2023-03-08T19:02:39.638Z,16.27
2023-03-08T19:05:07.559Z,16.00
2023-03-08T19:07:34.670Z,15.67
2023-03-08T19:10:01.757Z,11.27
2023-03-08T19:12:30.022Z,15.20
2023-03-08T19:14:57.087Z,14.13
2023-03-08T19:17:23.839Z,16.10
2023-03-08T19:19:50.693Z,17.43
2023-03-08T19:22:17.737Z,15.20
2023-03-08T19:24:44.616Z,14.87
2023-03-08T19:27:13.650Z,13.30
2023-03-08T19:29:40.504Z,16.67
2023-03-08T19:32:10.791Z,15.70
2023-03-08T19:34:44.705Z,12.50
2023-03-08T19:37:13.946Z,14.30
2023-03-08T19:39:43.559Z,13.40
2023-03-08T19:42:15.189Z,13.50
2023-03-08T19:44:44.212Z,15.70
2023-03-08T19:47:11.140Z,17.20
2023-03-08T19:49:39.901Z,18.20
2023-03-08T19:52:07.423Z,18.47
2023-03-08T19:54:35.212Z,15.50
2023-03-08T19:57:03.074Z,15.67
2023-03-08T19:59:29.942Z,16.43
2023-03-08T20:01:57.106Z,18.13
2023-03-08T20:04:25.000Z,12.17
2023-03-08T20:06:52.582Z,16.77
2023-03-08T20:09:23.973Z,17.10
2023-03-08T20:11:57.176Z,15.30
2023-03-08T20:14:27.063Z,15.70
2023-03-08T20:16:54.986Z,13.33
2023-03-08T20:19:22.121Z,13.67
2023-03-08T20:21:49.133Z,12.13
2023-03-08T20:24:18.403Z,15.03
2023-03-08T20:26:45.767Z,14.57
2023-03-08T20:29:12.622Z,14.30
2023-03-08T20:31:39.667Z,15.77
2023-03-08T20:34:06.491Z,15.93
2023-03-08T20:36:33.423Z,14.90
2023-03-08T20:39:00.740Z,14.47
2023-03-08T20:41:28.405Z,12.90
2023-03-08T20:43:55.758Z,11.73
2023-03-08T20:46:27.668Z,13.50
2023-03-08T20:48:54.584Z,11.77
2023-03-08T20:51:24.154Z,12.23
2023-03-08T20:53:54.364Z,14.90
2023-03-08T20:56:23.799Z,15.23
2023-03-08T20:58:54.272Z,11.60
2023-03-08T21:01:26.530Z,13.27
2023-03-08T21:03:53.378Z,12.70
2023-03-08T21:06:24.956Z,14.93
2023-03-08T21:08:53.148Z,14.60
2023-03-08T21:11:20.903Z,15.03
2023-03-08T21:13:50.550Z,12.00
2023-03-08T21:16:20.813Z,13.60
2023-03-08T21:18:53.725Z,15.70
2023-03-08T21:21:38.386Z,13.93
2023-03-08T21:24:18.139Z,16.33
2023-03-08T21:26:46.038Z,12.13
2023-03-08T21:29:17.194Z,14.37
2023-03-08T21:31:51.648Z,17.20
2023-03-08T21:34:20.577Z,17.03
2023-03-08T21:36:47.649Z,16.87
2023-03-08T21:39:15.331Z,16.80
2023-03-08T21:41:45.972Z,14.87
2023-03-08T21:44:19.895Z,14.70
2023-03-08T21:46:47.805Z,19.43
2023-03-08T21:49:24.323Z,20.67
2023-03-08T21:51:53.528Z,26.13
2023-03-08T21:54:22.332Z,23.47
2023-03-08T21:56:49.559Z,23.97
2023-03-08T21:59:17.174Z,23.90
2023-03-08T22:01:48.657Z,19.93
2023-03-08T22:04:16.495Z,20.03
2023-03-08T22:06:43.789Z,20.13
2023-03-08T22:09:11.074Z,16.77
2023-03-08T22:11:38.642Z,20.37
2023-03-08T22:14:06.305Z,15.90
2023-03-08T22:16:37.607Z,15.53
2023-03-08T22:19:05.074Z,14.23
2023-03-08T22:21:32.391Z,17.87
2023-03-08T22:24:02.258Z,14.53
2023-03-08T22:26:30.935Z,15.63
2023-03-08T22:28:58.665Z,16.77
2023-03-08T22:31:28.637Z,17.60
2023-03-08T22:33:55.831Z,19.03
2023-03-08T22:36:23.358Z,14.17
2023-03-08T22:38:50.621Z,16.07
2023-03-08T22:41:25.197Z,13.73
2023-03-08T22:43:53.352Z,18.13
2023-03-08T22:46:24.305Z,17.20
2023-03-08T22:48:52.478Z,15.87
2023-03-08T22:51:22.212Z,12.10
2023-03-08T22:53:50.057Z,15.10
2023-03-08T22:56:26.008Z,11.47
2023-03-08T22:58:53.162Z,13.73
2023-03-08T23:01:23.077Z,15.63
2023-03-08T23:03:53.548Z,11.07
2023-03-08T23:06:20.600Z,15.13
2023-03-08T23:08:47.765Z,15.03
2023-03-08T23:11:15.285Z,12.93
2023-03-08T23:13:43.152Z,12.90
2023-03-08T23:16:14.674Z,12.40
2023-03-08T23:18:42.285Z,16.00
2023-03-08T23:21:14.134Z,15.20
2023-03-08T23:23:41.561Z,13.40
2023-03-08T23:26:13.322Z,13.40
2023-03-08T23:28:40.445Z,13.30
2023-03-08T23:31:13.082Z,14.27
2023-03-08T23:33:40.665Z,16.67
2023-03-08T23:36:10.250Z,12.83
2023-03-08T23:38:37.495Z,10.87
2023-03-08T23:41:07.042Z,14.33
2023-03-08T23:43:35.483Z,13.17
2023-03-08T23:46:08.322Z,17.53
2023-03-08T23:48:35.658Z,18.13
2023-03-08T23:51:09.161Z,20.23
2023-03-08T23:53:36.822Z,14.57
2023-03-08T23:56:05.114Z,14.50
2023-03-08T23:58:32.282Z,14.90
